createdAt,value
2019-02-14T00:01:41.423Z,6.04
2019-02-14T00:04:30.153Z,6.10
2019-02-14T00:07:18.542Z,6.25
2019-02-14T00:10:07.293Z,6.19
2019-02-14T00:12:55.553Z,6.09
2019-02-14T00:15:45.384Z,6.13
2019-02-14T00:18:33.735Z,6.12
2019-02-14T00:21:22.092Z,6.24
2019-02-14T00:24:10.385Z,6.19
2019-02-14T00:26:58.824Z,6.19
2019-02-14T00:29:47.309Z,6.19
2019-02-14T00:32:36.037Z,6.16
2019-02-14T00:35:25.312Z,6.18
2019-02-14T00:38:13.631Z,6.11
2019-02-14T00:41:01.847Z,6.12
2019-02-14T00:43:50.856Z,6.14
2019-02-14T00:46:39.438Z,6.19
2019-02-14T00:49:28.123Z,6.17
2019-02-14T00:52:16.580Z,6.18
2019-02-14T00:55:05.619Z,6.20
2019-02-14T00:57:54.185Z,6.19
2019-02-14T01:00:42.582Z,6.26
2019-02-14T01:03:30.819Z,6.23
2019-02-14T01:06:19.797Z,6.21
2019-02-14T01:09:08.249Z,6.23
2019-02-14T01:11:57.252Z,6.24
2019-02-14T01:14:45.538Z,6.35
2019-02-14T01:17:34.034Z,6.39
2019-02-14T01:20:22.738Z,6.33
2019-02-14T01:23:11.064Z,6.37
2019-02-14T01:25:59.385Z,6.31
2019-02-14T01:31:35.054Z,6.31
2019-02-14T01:34:23.353Z,6.28
2019-02-14T01:37:11.958Z,6.27
2019-02-14T01:40:00.579Z,6.29
2019-02-14T01:42:48.796Z,6.24
2019-02-14T01:45:36.997Z,6.44
2019-02-14T01:48:25.537Z,6.36
2019-02-14T01:51:14.087Z,6.38
2019-02-14T01:54:02.588Z,6.26
2019-02-14T01:56:51.254Z,6.34
2019-02-14T01:59:39.471Z,6.46
2019-02-14T02:02:28.229Z,6.40
2019-02-14T02:05:16.473Z,6.31
2019-02-14T02:08:04.709Z,6.34
2019-02-14T02:10:52.926Z,6.28
2019-02-14T02:13:41.147Z,6.27
2019-02-14T02:16:29.589Z,6.23
2019-02-14T02:19:17.825Z,6.40
2019-02-14T02:22:06.038Z,6.29
2019-02-14T02:24:54.560Z,6.25
2019-02-14T02:27:42.860Z,6.18
2019-02-14T02:30:31.852Z,6.13
2019-02-14T02:33:20.294Z,6.26
2019-02-14T02:36:08.569Z,6.43
2019-02-14T02:38:56.918Z,6.23
2019-02-14T02:41:45.163Z,6.11
2019-02-14T02:44:33.349Z,6.09
2019-02-14T02:47:21.848Z,6.05
2019-02-14T02:50:11.812Z,6.06
2019-02-14T02:53:00.929Z,6.06
2019-02-14T02:55:49.456Z,6.12
2019-02-14T02:58:38.078Z,6.13
2019-02-14T03:01:26.278Z,6.10
2019-02-14T03:04:14.696Z,6.05
2019-02-14T03:07:02.989Z,6.04
2019-02-14T03:09:51.612Z,6.00
2019-02-14T03:12:40.146Z,6.15
2019-02-14T03:15:28.333Z,6.03
2019-02-14T03:18:16.572Z,6.03
2019-02-14T03:21:07.142Z,6.06
2019-02-14T03:23:55.310Z,6.08
2019-02-14T03:26:43.961Z,6.08
2019-02-14T03:29:32.207Z,6.03
2019-02-14T03:32:20.806Z,6.15
2019-02-14T03:35:09.413Z,6.12
2019-02-14T03:37:58.121Z,6.17
2019-02-14T03:40:46.380Z,6.13
2019-02-14T03:43:34.981Z,6.04
2019-02-14T03:46:23.211Z,6.11
2019-02-14T03:49:11.426Z,6.15
2019-02-14T03:51:59.855Z,6.13
2019-02-14T03:54:48.272Z,6.04
2019-02-14T03:57:36.531Z,6.02
2019-02-14T04:00:25.176Z,5.92
2019-02-14T04:03:13.454Z,5.88
2019-02-14T04:06:02.106Z,5.86
2019-02-14T04:08:50.353Z,5.95
2019-02-14T04:11:38.655Z,5.85
2019-02-14T04:14:26.948Z,5.85
2019-02-14T04:17:15.162Z,5.80
2019-02-14T04:20:03.584Z,5.75
2019-02-14T04:22:52.296Z,5.73
2019-02-14T04:25:41.026Z,5.72
2019-02-14T04:28:29.965Z,5.64
2019-02-14T04:31:18.183Z,5.65
2019-02-14T04:34:06.374Z,5.67
2019-02-14T04:36:55.896Z,5.59
2019-02-14T04:39:44.888Z,5.58
2019-02-14T04:42:33.360Z,5.53
2019-02-14T04:45:21.257Z,5.60
2019-02-14T04:48:09.776Z,5.59
2019-02-14T04:50:58.881Z,5.62
2019-02-14T04:53:47.106Z,5.58
2019-02-14T04:56:35.655Z,5.47
2019-02-14T04:59:23.795Z,5.45
2019-02-14T05:02:12.017Z,5.40
2019-02-14T05:05:00.583Z,5.40
2019-02-14T05:07:50.069Z,5.35
2019-02-14T05:10:38.594Z,5.36
2019-02-14T05:13:26.791Z,5.34
2019-02-14T05:16:15.070Z,5.26
2019-02-14T05:19:03.130Z,5.26
2019-02-14T05:21:51.594Z,5.32
2019-02-14T05:24:40.530Z,5.38
2019-02-14T05:27:29.380Z,5.28
2019-02-14T05:30:19.196Z,5.37
2019-02-14T05:33:07.995Z,5.38
2019-02-14T05:35:56.440Z,5.42
2019-02-14T05:38:44.852Z,5.60
2019-02-14T05:41:33.810Z,5.67
2019-02-14T05:44:22.043Z,5.62
2019-02-14T05:47:10.285Z,5.66
2019-02-14T05:49:58.479Z,5.79
2019-02-14T05:52:47.099Z,5.93
2019-02-14T05:55:35.333Z,6.02
2019-02-14T05:58:23.962Z,6.13
2019-02-14T06:01:14.383Z,5.95
2019-02-14T06:04:02.315Z,5.94
2019-02-14T06:06:51.107Z,6.07
2019-02-14T06:09:39.746Z,6.06
2019-02-14T06:12:28.058Z,6.06
2019-02-14T06:15:16.046Z,6.09
2019-02-14T06:18:04.277Z,6.15
2019-02-14T06:20:52.545Z,6.17
2019-02-14T06:23:40.717Z,6.29
2019-02-14T06:26:28.915Z,6.31
2019-02-14T06:29:17.287Z,6.40
2019-02-14T06:32:05.799Z,6.38
2019-02-14T06:34:54.075Z,6.49
2019-02-14T06:37:42.376Z,6.48
2019-02-14T06:40:30.618Z,6.45
2019-02-14T06:43:18.821Z,6.60
2019-02-14T06:46:07.483Z,6.51
2019-02-14T06:48:55.765Z,6.53
2019-02-14T06:51:44.623Z,7.07
2019-02-14T06:54:33.091Z,7.03
2019-02-14T06:57:21.472Z,7.21
2019-02-14T07:00:11.660Z,7.09
2019-02-14T07:03:00.632Z,7.04
2019-02-14T07:05:49.181Z,7.08
2019-02-14T07:08:38.078Z,6.88
2019-02-14T07:11:26.635Z,7.06
2019-02-14T07:14:15.515Z,7.02
2019-02-14T07:17:04.076Z,6.98
2019-02-14T07:19:52.421Z,6.97
2019-02-14T07:22:40.610Z,7.01
2019-02-14T07:25:28.747Z,6.95
2019-02-14T07:28:17.353Z,6.73
2019-02-14T07:31:06.510Z,6.71
2019-02-14T07:33:54.968Z,6.59
2019-02-14T07:36:43.478Z,6.48
2019-02-14T07:39:31.658Z,6.49
2019-02-14T07:42:20.158Z,6.41
2019-02-14T07:45:10.219Z,6.50
2019-02-14T07:47:58.368Z,6.48
2019-02-14T07:50:46.772Z,6.59
2019-02-14T07:53:35.674Z,6.67
2019-02-14T07:56:24.152Z,6.98
2019-02-14T07:59:13.256Z,7.35
2019-02-14T08:02:01.839Z,7.31
2019-02-14T08:04:50.065Z,7.19
2019-02-14T08:07:38.362Z,7.48
2019-02-14T08:10:26.718Z,7.40
2019-02-14T08:13:14.928Z,7.28
2019-02-14T08:16:03.196Z,7.36
2019-02-14T08:18:51.712Z,7.41
2019-02-14T08:21:40.269Z,7.52
2019-02-14T08:24:28.590Z,7.47
2019-02-14T08:27:17.553Z,7.42
2019-02-14T08:30:07.023Z,7.46
2019-02-14T08:32:55.464Z,7.58
2019-02-14T08:35:43.707Z,7.73
2019-02-14T08:38:32.161Z,7.94
2019-02-14T08:41:20.398Z,8.08
2019-02-14T08:44:08.656Z,8.06
2019-02-14T08:46:56.885Z,8.08
2019-02-14T08:49:45.142Z,8.30
2019-02-14T08:52:33.357Z,8.34
2019-02-14T08:55:22.348Z,8.44
2019-02-14T08:58:10.855Z,8.59
2019-02-14T09:00:59.469Z,8.65
2019-02-14T09:03:48.071Z,8.83
2019-02-14T09:06:36.319Z,8.94
2019-02-14T09:09:24.824Z,8.93
2019-02-14T09:12:13.151Z,8.95
2019-02-14T09:15:01.702Z,8.91
2019-02-14T09:17:49.647Z,8.89
2019-02-14T09:20:38.050Z,9.05
2019-02-14T09:23:26.264Z,9.19
2019-02-14T09:26:14.528Z,9.09
2019-02-14T09:29:03.606Z,9.12
2019-02-14T09:31:52.118Z,9.12
2019-02-14T09:34:40.708Z,9.30
2019-02-14T09:37:28.994Z,9.52
2019-02-14T09:40:17.971Z,9.61
2019-02-14T09:43:06.261Z,9.72
2019-02-14T09:45:54.978Z,9.86
2019-02-14T09:48:43.555Z,9.77
2019-02-14T09:51:31.774Z,9.92
2019-02-14T09:54:20.007Z,9.86
2019-02-14T09:57:08.505Z,9.57
2019-02-14T09:59:57.428Z,9.71
2019-02-14T10:02:45.602Z,9.77
2019-02-14T10:05:33.793Z,9.76
2019-02-14T10:08:22.133Z,9.63
2019-02-14T10:11:10.603Z,9.62
2019-02-14T10:13:58.792Z,9.61
2019-02-14T10:16:46.996Z,9.75
2019-02-14T10:19:35.585Z,9.67
2019-02-14T10:22:24.630Z,9.50
2019-02-14T10:25:13.041Z,9.46
2019-02-14T10:28:01.883Z,9.64
2019-02-14T10:30:50.091Z,9.64
2019-02-14T10:33:38.680Z,9.70
2019-02-14T10:36:26.820Z,9.75
2019-02-14T10:39:15.002Z,9.73
2019-02-14T10:42:03.390Z,9.54
2019-02-14T10:44:51.822Z,9.36
2019-02-14T10:47:40.526Z,9.32
2019-02-14T10:50:28.756Z,9.57
2019-02-14T10:53:17.264Z,9.72
2019-02-14T10:56:08.695Z,9.72
2019-02-14T10:58:59.030Z,9.86
2019-02-14T11:01:47.073Z,9.76
2019-02-14T11:04:35.491Z,9.72
2019-02-14T11:07:23.693Z,9.82
2019-02-14T11:10:12.274Z,9.93
2019-02-14T11:13:00.505Z,10.07
2019-02-14T11:15:48.882Z,10.01
2019-02-14T11:18:43.883Z,10.05
2019-02-14T11:21:27.551Z,10.17
2019-02-14T11:24:15.535Z,10.36
2019-02-14T11:27:03.851Z,10.50
2019-02-14T11:29:52.652Z,10.51
2019-02-14T11:32:41.336Z,10.68
2019-02-14T11:35:29.542Z,10.95
2019-02-14T11:38:17.787Z,10.93
2019-02-14T11:41:07.748Z,11.36
2019-02-14T11:43:56.373Z,11.44
2019-02-14T11:46:51.266Z,11.54
2019-02-14T11:49:35.297Z,11.86
2019-02-14T11:52:23.488Z,11.49
2019-02-14T11:55:11.844Z,11.46
2019-02-14T11:58:00.472Z,11.55
2019-02-14T12:00:49.014Z,11.65
2019-02-14T12:03:37.437Z,11.22
2019-02-14T12:06:25.925Z,11.33
2019-02-14T12:09:14.177Z,11.45
2019-02-14T12:12:02.483Z,11.21
2019-02-14T12:14:51.459Z,11.09
2019-02-14T12:17:39.691Z,10.91
2019-02-14T12:20:28.023Z,10.95
2019-02-14T12:23:16.391Z,10.70
2019-02-14T12:26:05.753Z,10.56
2019-02-14T12:28:54.109Z,10.64
2019-02-14T12:31:42.342Z,10.84
2019-02-14T12:34:30.565Z,11.02
2019-02-14T12:37:18.900Z,11.13
2019-02-14T12:40:08.421Z,11.23
2019-02-14T12:42:57.074Z,11.23
2019-02-14T12:45:45.547Z,11.12
2019-02-14T12:48:34.142Z,11.19
2019-02-14T12:51:22.471Z,11.05
2019-02-14T12:54:10.788Z,11.14
2019-02-14T12:56:59.023Z,11.36
2019-02-14T12:59:47.184Z,11.63
2019-02-14T13:02:36.111Z,11.46
2019-02-14T13:05:24.326Z,11.43
2019-02-14T13:08:12.513Z,11.49
2019-02-14T13:11:00.726Z,11.87
2019-02-14T13:13:50.569Z,11.82
2019-02-14T13:16:39.483Z,11.78
2019-02-14T13:19:28.071Z,12.32
2019-02-14T13:22:16.632Z,11.88
2019-02-14T13:25:05.822Z,12.09
2019-02-14T13:27:54.054Z,12.18
2019-02-14T13:30:42.767Z,12.43
2019-02-14T13:33:30.989Z,12.79
2019-02-14T13:36:19.383Z,12.40
2019-02-14T13:39:08.422Z,12.42
2019-02-14T13:41:57.433Z,12.23
2019-02-14T13:44:45.770Z,12.53
2019-02-14T13:47:34.058Z,12.47
2019-02-14T13:50:23.672Z,12.20
2019-02-14T13:53:12.145Z,12.24
2019-02-14T13:56:00.380Z,12.18
2019-02-14T13:58:48.973Z,12.10
2019-02-14T14:01:37.579Z,11.88
2019-02-14T14:04:25.790Z,11.94
2019-02-14T14:07:14.102Z,11.74
2019-02-14T14:10:02.721Z,12.12
2019-02-14T14:12:50.901Z,12.08
2019-02-14T14:15:39.486Z,11.88
2019-02-14T14:18:27.768Z,11.88
2019-02-14T14:21:16.308Z,11.91
2019-02-14T14:24:04.683Z,11.92
2019-02-14T14:26:53.202Z,11.96
2019-02-14T14:29:41.757Z,11.83
2019-02-14T14:32:30.280Z,11.82
2019-02-14T14:35:18.661Z,11.77
2019-02-14T14:38:06.887Z,11.76
2019-02-14T14:40:55.449Z,11.88
2019-02-14T14:44:18.045Z,12.14
2019-02-14T14:47:15.523Z,12.08
2019-02-14T14:50:04.630Z,12.29
2019-02-14T14:52:53.367Z,12.48
2019-02-14T14:55:41.768Z,13.14
2019-02-14T14:58:30.499Z,13.83
2019-02-14T15:01:18.969Z,14.66
2019-02-14T15:04:07.189Z,15.36
2019-02-14T15:06:55.592Z,15.63
2019-02-14T15:09:44.090Z,15.91
2019-02-14T15:12:32.945Z,16.25
2019-02-14T15:15:21.087Z,15.39
2019-02-14T15:18:09.379Z,14.89
2019-02-14T15:20:57.643Z,14.79
2019-02-14T15:23:46.176Z,15.02
2019-02-14T15:26:34.987Z,14.94
2019-02-14T15:29:23.489Z,13.28
2019-02-14T15:32:12.146Z,12.35
2019-02-14T15:35:00.571Z,11.73
2019-02-14T15:37:48.885Z,11.22
2019-02-14T15:40:37.476Z,10.97
2019-02-14T15:43:26.103Z,10.79
2019-02-14T15:46:14.362Z,10.50
2019-02-14T15:49:03.072Z,10.31
2019-02-14T15:51:51.583Z,10.32
2019-02-14T15:54:39.729Z,10.17
2019-02-14T15:57:28.667Z,10.09
2019-02-14T16:00:16.834Z,10.14
2019-02-14T16:03:05.440Z,10.11
2019-02-14T16:05:53.470Z,10.09
2019-02-14T16:08:42.004Z,10.04
2019-02-14T16:11:30.239Z,9.90
2019-02-14T16:14:20.857Z,9.87
2019-02-14T16:17:13.102Z,9.79
2019-02-14T16:19:59.904Z,9.74
2019-02-14T16:22:48.372Z,9.72
2019-02-14T16:25:36.984Z,9.65
2019-02-14T16:28:25.257Z,9.59
2019-02-14T16:31:14.031Z,9.42
2019-02-14T16:34:02.557Z,9.32
2019-02-14T16:36:50.904Z,9.16
2019-02-14T16:39:39.134Z,9.17
2019-02-14T16:42:27.317Z,9.07
2019-02-14T16:45:15.549Z,9.02
2019-02-14T16:48:03.735Z,8.92
2019-02-14T16:50:51.927Z,8.92
2019-02-14T16:53:40.560Z,8.83
2019-02-14T16:56:28.784Z,8.68
2019-02-14T16:59:17.153Z,8.62
2019-02-14T17:02:05.453Z,8.77
2019-02-14T17:04:53.746Z,8.74
2019-02-14T17:07:42.487Z,8.66
2019-02-14T17:10:36.707Z,8.65
2019-02-14T17:13:21.786Z,8.53
2019-02-14T17:16:10.520Z,8.48
2019-02-14T17:18:58.687Z,8.44
2019-02-14T17:21:46.987Z,8.30
2019-02-14T17:24:35.467Z,8.33
2019-02-14T17:27:24.343Z,8.27
2019-02-14T17:30:12.863Z,8.12
2019-02-14T17:33:01.797Z,8.00
2019-02-14T17:35:50.018Z,8.05
2019-02-14T17:38:38.748Z,8.00
2019-02-14T17:41:27.072Z,7.99
2019-02-14T17:44:15.250Z,8.00
2019-02-14T17:47:03.663Z,7.90
2019-02-14T17:49:51.883Z,7.96
2019-02-14T17:52:40.439Z,7.89
2019-02-14T17:55:29.028Z,7.93
2019-02-14T17:58:17.272Z,7.92
2019-02-14T18:01:05.273Z,7.92
2019-02-14T18:03:53.715Z,7.93
2019-02-14T18:06:42.385Z,7.91
2019-02-14T18:09:30.802Z,7.89
2019-02-14T18:12:19.277Z,7.84
2019-02-14T18:15:09.773Z,7.70
2019-02-14T18:17:58.609Z,7.55
2019-02-14T18:20:46.950Z,7.69
2019-02-14T18:23:35.195Z,7.62
2019-02-14T18:26:23.358Z,7.57
2019-02-14T18:29:11.990Z,7.48
2019-02-14T18:32:00.543Z,7.38
2019-02-14T18:34:48.804Z,7.41
2019-02-14T18:37:37.273Z,7.42
2019-02-14T18:40:25.515Z,7.38
2019-02-14T18:43:14.030Z,7.24
2019-02-14T18:46:02.783Z,7.21
2019-02-14T18:48:51.022Z,7.12
2019-02-14T18:51:39.345Z,7.11
2019-02-14T18:54:27.756Z,7.12
2019-02-14T18:57:16.657Z,7.13
2019-02-14T19:00:06.911Z,7.16
2019-02-14T19:02:55.881Z,7.05
2019-02-14T19:05:44.048Z,7.01
2019-02-14T19:08:32.772Z,7.07
2019-02-14T19:11:21.035Z,7.04
2019-02-14T19:14:09.416Z,6.92
2019-02-14T19:16:57.916Z,6.92
2019-02-14T19:19:46.471Z,6.92
2019-02-14T19:22:35.090Z,7.02
2019-02-14T19:25:24.031Z,7.13
2019-02-14T19:28:12.451Z,7.13
2019-02-14T19:31:00.402Z,6.99
2019-02-14T19:33:48.660Z,6.93
2019-02-14T19:36:37.276Z,6.96
2019-02-14T19:39:25.607Z,6.93
2019-02-14T19:42:13.776Z,6.98
2019-02-14T19:45:02.047Z,6.96
2019-02-14T19:47:50.671Z,6.88
2019-02-14T19:50:39.046Z,6.80
2019-02-14T19:53:27.865Z,6.83
2019-02-14T19:56:16.203Z,6.79
2019-02-14T19:59:05.103Z,6.76
2019-02-14T20:01:53.399Z,6.76
2019-02-14T20:04:42.551Z,6.54
2019-02-14T20:07:30.791Z,6.62
2019-02-14T20:10:19.938Z,6.66
2019-02-14T20:13:08.174Z,6.50
2019-02-14T20:15:57.117Z,6.57
2019-02-14T20:18:45.763Z,6.37
2019-02-14T20:21:34.338Z,6.38
2019-02-14T20:24:22.797Z,6.25
2019-02-14T20:27:11.030Z,6.38
2019-02-14T20:30:00.322Z,6.31
2019-02-14T20:32:48.595Z,6.31
2019-02-14T20:35:36.928Z,6.21
2019-02-14T20:38:25.123Z,6.32
2019-02-14T20:41:13.663Z,6.47
2019-02-14T20:44:01.937Z,6.26
2019-02-14T20:46:50.220Z,6.47
2019-02-14T20:49:38.423Z,6.31
2019-02-14T20:52:26.671Z,6.44
2019-02-14T20:55:16.186Z,6.41
2019-02-14T20:58:04.741Z,6.32
2019-02-14T21:00:53.090Z,6.34
2019-02-14T21:03:41.407Z,6.45
2019-02-14T21:06:30.326Z,6.41
2019-02-14T21:09:19.209Z,6.40
2019-02-14T21:12:07.696Z,6.31
2019-02-14T21:14:55.940Z,6.34
2019-02-14T21:17:44.373Z,6.20
2019-02-14T21:20:32.612Z,6.32
2019-02-14T21:23:21.026Z,6.25
2019-02-14T21:26:09.473Z,6.14
2019-02-14T21:28:57.686Z,6.16
2019-02-14T21:31:46.266Z,6.08
2019-02-14T21:34:35.141Z,6.02
2019-02-14T21:37:23.607Z,6.11
2019-02-14T21:40:12.751Z,6.14
2019-02-14T21:43:01.296Z,6.12
2019-02-14T21:45:50.585Z,6.19
2019-02-14T21:48:38.942Z,6.05
2019-02-14T21:51:27.556Z,6.03
2019-02-14T21:54:17.809Z,6.10
2019-02-14T21:57:05.867Z,6.08
2019-02-14T21:59:54.745Z,5.90
2019-02-14T22:02:43.767Z,5.92
2019-02-14T22:05:32.506Z,5.85
2019-02-14T22:08:21.470Z,5.82
2019-02-14T22:11:10.007Z,5.74
2019-02-14T22:13:58.166Z,5.73
2019-02-14T22:16:46.363Z,5.62
2019-02-14T22:19:35.073Z,5.52
2019-02-14T22:22:23.315Z,5.43
2019-02-14T22:25:11.953Z,5.27
2019-02-14T22:28:00.404Z,5.27
2019-02-14T22:30:49.152Z,5.17
2019-02-14T22:33:37.460Z,5.22
2019-02-14T22:36:26.393Z,5.12
2019-02-14T22:39:14.866Z,4.99
2019-02-14T22:42:03.907Z,5.01
2019-02-14T22:44:52.216Z,5.03
2019-02-14T22:47:41.187Z,4.80
2019-02-14T22:50:29.397Z,4.81
2019-02-14T22:53:18.401Z,4.88
2019-02-14T22:56:07.268Z,4.93
2019-02-14T22:58:55.233Z,4.89
2019-02-14T23:01:44.019Z,4.75
2019-02-14T23:04:32.411Z,4.95
2019-02-14T23:07:20.612Z,5.11
2019-02-14T23:10:09.086Z,5.42
2019-02-14T23:12:57.733Z,5.53
2019-02-14T23:15:45.930Z,5.68
2019-02-14T23:18:34.099Z,5.79
2019-02-14T23:21:22.542Z,5.82
2019-02-14T23:24:10.893Z,5.97
2019-02-14T23:26:59.442Z,5.98
2019-02-14T23:29:47.865Z,6.16
2019-02-14T23:32:36.536Z,6.12
2019-02-14T23:35:25.040Z,6.06
2019-02-14T23:38:14.356Z,6.02
2019-02-14T23:41:02.802Z,6.06
2019-02-14T23:43:51.757Z,6.07
2019-02-14T23:46:40.192Z,6.06
2019-02-14T23:49:28.889Z,6.11
2019-02-14T23:52:17.483Z,6.13
2019-02-14T23:55:05.887Z,6.16
2019-02-14T23:57:56.164Z,6.13
